Orange, CA

5:06 PM PDT on July 07, 2015 (GMT -0700)
Old Town Orange | | Change Station
CLOSE
Current Station
Personal Weather Station
Location: Orange, CA
Elevation: 213 ft
Nearby Weather Stations

Elev 213 ft 33.78 °N, 117.85 °W | Updated 10 seconds ago

Overcast
Overcast
75.9 °F
Feels Like 78 °F
N
2.9
Wind Variable Wind from West
Gusts 8.0 mph

Today
High -- | Low -- °F
--% Chance of Precip.
Yesterday
High -- | Low -- °F
Precip. -- in
5:47 AM 8:05 PM
Waning Gibbous, 60% visible
Pressure 29.88 in
Visibility 10.0 miles
Clouds Few 1800 ft
Heat Index 78 °F
Dew Point 62 °F
Humidity 61%
Rainfall 0.00 in
Snow Depth Not available.
UV 4 out of 12
Pollen 3.50 out of 12
Air Quality Not available.
Flu Activity Not available.
METAR KSNA 072353Z 21009KT 10SM FEW018 23/16 A2989 RMK AO2 SLP119 T02280156 10233 20189 58012

More Conditions Fewer Conditions

Pressure 29.88 in
Visibility 10.0 miles
Clouds Few 1800 ft
Heat Index 78 °F
Dew Point 62 °F
Humidity 61%
Rainfall 0.00 in
Snow Depth Not available.
UV 4 out of 12
Pollen 3.50 out of 12
Air Quality Not available.
Flu Activity Not available.
METAR KSNA 072353Z 21009KT 10SM FEW018 23/16 A2989 RMK AO2 SLP119 T02280156 10233 20189 58012

More Conditions Fewer Conditions

10-Day Weather Forecast

×

Almanac

Astronomy

Jul. 07, 2015 Rise Set
Actual Time
Civil Twilight
Nautical Twilight
Astronomical Twilight
Moon
Length of Visible Light
Length of Day
Tomorrow will be .
, % of the Moon is Illuminated

Today's Extremes

State Highs State Lows

Community

WunderPhotos

Upload Photos

1,835,961 photos uploaded!

WunderBlogs® & News

Nearby

Air Quality

  Air Quality AQ Index Pollutant
Not available.

Snow Depth

Station Depth Elevation

Earthquake Activity

City Distance Mag. Time & Date
Minimum magnitude displayed is 2.5.

Coastal Water Temperatures

Place Temperature

Stations

Nearby Weather Stations

Station Location Temp. Windchill Dew Point Humidity Wind Precip. Elev Updated Type